createdAt,value
2022-10-25T00:00:20.099Z,60.24
2022-10-25T00:02:25.737Z,60.16
2022-10-25T00:04:30.045Z,60.09
2022-10-25T00:06:32.320Z,60.08
2022-10-25T00:08:34.384Z,60.18
2022-10-25T00:10:36.558Z,60.02
2022-10-25T00:12:45.925Z,60.16
2022-10-25T00:14:47.911Z,59.63
2022-10-25T00:16:49.954Z,59.87
2022-10-25T00:18:52.914Z,60.21
2022-10-25T00:20:55.552Z,59.56
2022-10-25T00:22:57.722Z,59.56
2022-10-25T00:24:59.739Z,59.64
2022-10-25T00:27:01.866Z,59.53
2022-10-25T00:29:04.204Z,59.41
2022-10-25T00:31:09.516Z,59.52
2022-10-25T00:33:12.666Z,59.16
2022-10-25T00:35:14.680Z,59.72
2022-10-25T00:37:16.742Z,59.41
2022-10-25T00:39:18.989Z,59.06
2022-10-25T00:41:25.483Z,59.16
2022-10-25T00:43:37.572Z,59.34
2022-10-25T00:45:39.819Z,59.51
2022-10-25T00:47:49.116Z,59.48
2022-10-25T00:50:03.273Z,59.60
2022-10-25T00:52:08.330Z,59.65
2022-10-25T00:54:13.406Z,60.25
2022-10-25T00:56:22.567Z,61.23
2022-10-25T00:58:28.351Z,60.98
2022-10-25T01:00:30.395Z,61.34
2022-10-25T01:02:34.290Z,62.93
2022-10-25T01:04:36.403Z,62.20
2022-10-25T01:06:43.740Z,62.22
2022-10-25T01:08:50.616Z,62.40
2022-10-25T01:10:53.198Z,62.38
2022-10-25T01:12:56.212Z,61.98
2022-10-25T01:14:58.650Z,61.99
2022-10-25T01:17:18.765Z,62.42
2022-10-25T01:19:48.273Z,61.24
2022-10-25T01:21:56.994Z,61.03
2022-10-25T01:23:58.904Z,61.15
2022-10-25T01:26:38.308Z,61.23
2022-10-25T01:28:58.250Z,61.15
2022-10-25T01:31:19.172Z,61.46
2022-10-25T01:33:43.953Z,61.44
2022-10-25T01:36:16.092Z,60.96
2022-10-25T01:38:37.289Z,61.04
2022-10-25T01:40:53.464Z,60.60
2022-10-25T01:43:04.534Z,61.02
2022-10-25T01:45:09.617Z,60.68
2022-10-25T01:47:20.665Z,61.31
2022-10-25T01:49:34.851Z,60.79
2022-10-25T01:51:37.529Z,60.42
2022-10-25T01:53:50.652Z,60.80
2022-10-25T01:55:57.758Z,60.35
2022-10-25T01:58:18.522Z,60.16
2022-10-25T02:00:23.049Z,60.76
2022-10-25T02:02:52.845Z,61.12
2022-10-25T02:05:10.626Z,61.58
2022-10-25T02:07:48.193Z,61.01
2022-10-25T02:09:59.182Z,60.55
2022-10-25T02:12:04.884Z,60.85
2022-10-25T02:14:15.581Z,60.66
2022-10-25T02:16:25.598Z,60.48
2022-10-25T02:20:36.071Z,60.67
2022-10-25T02:22:39.750Z,60.46
2022-10-25T02:24:45.992Z,60.65
2022-10-25T02:26:56.580Z,60.49
2022-10-25T02:29:00.632Z,60.69
2022-10-25T02:31:03.818Z,60.73
2022-10-25T02:33:06.968Z,60.81
2022-10-25T02:35:15.809Z,60.59
2022-10-25T02:37:20.644Z,60.30
2022-10-25T02:39:27.679Z,60.61
2022-10-25T02:41:34.085Z,60.48
2022-10-25T02:43:36.735Z,60.07
2022-10-25T02:45:38.796Z,60.03
2022-10-25T02:47:40.807Z,60.40
2022-10-25T02:49:43.456Z,60.59
2022-10-25T02:51:48.566Z,61.08
2022-10-25T02:53:50.980Z,61.91
2022-10-25T02:56:05.213Z,62.46
2022-10-25T02:58:09.966Z,62.14
2022-10-25T03:02:19.731Z,62.57
2022-10-25T03:04:22.095Z,62.84
2022-10-25T03:06:24.370Z,62.51
2022-10-25T03:10:37.315Z,62.76
2022-10-25T03:12:39.586Z,62.79
2022-10-25T03:14:41.816Z,63.20
2022-10-25T03:16:44.306Z,63.19
2022-10-25T03:18:46.390Z,63.35
2022-10-25T03:20:48.755Z,63.15
2022-10-25T03:23:53.810Z,63.81
2022-10-25T03:26:00.720Z,63.93
2022-10-25T03:28:03.162Z,63.80
2022-10-25T03:30:05.635Z,63.98
2022-10-25T03:32:08.182Z,63.82
2022-10-25T03:34:10.350Z,64.45
2022-10-25T03:36:13.502Z,64.50
2022-10-25T03:38:15.458Z,64.40
2022-10-25T03:40:21.383Z,64.67
2022-10-25T03:42:23.781Z,64.40
2022-10-25T03:44:25.713Z,64.04
2022-10-25T03:46:27.826Z,64.88
2022-10-25T03:48:30.045Z,64.69
2022-10-25T03:50:36.252Z,64.75
2022-10-25T03:52:38.641Z,64.26
2022-10-25T03:54:44.201Z,64.67
2022-10-25T03:56:46.315Z,64.43
2022-10-25T03:58:48.421Z,64.61
2022-10-25T04:00:50.663Z,64.32
2022-10-25T04:03:01.734Z,64.81
2022-10-25T04:05:04.934Z,64.32
2022-10-25T04:07:07.089Z,64.18
2022-10-25T04:09:09.637Z,64.20
2022-10-25T04:11:11.582Z,64.09
2022-10-25T04:13:13.792Z,64.24
2022-10-25T04:15:16.223Z,64.16
2022-10-25T04:17:18.371Z,64.23
2022-10-25T04:19:20.395Z,64.44
2022-10-25T04:21:23.253Z,64.78
2022-10-25T04:23:25.415Z,64.89
2022-10-25T04:25:28.933Z,64.61
2022-10-25T04:27:31.011Z,64.31
2022-10-25T04:29:33.102Z,64.57
2022-10-25T04:31:35.322Z,64.56
2022-10-25T04:33:42.217Z,64.69
2022-10-25T04:35:54.206Z,64.92
2022-10-25T04:37:58.254Z,64.84
2022-10-25T04:40:00.574Z,64.67
2022-10-25T04:42:02.977Z,65.02
2022-10-25T04:44:05.424Z,64.76
2022-10-25T04:46:07.492Z,64.57
2022-10-25T04:48:09.601Z,64.72
2022-10-25T04:50:11.463Z,65.20
2022-10-25T04:52:13.608Z,64.92
2022-10-25T04:54:15.926Z,64.84
2022-10-25T04:56:18.109Z,65.07
2022-10-25T04:58:20.138Z,65.40
2022-10-25T05:00:22.405Z,64.90
2022-10-25T05:02:25.240Z,65.20
2022-10-25T05:04:27.767Z,65.19
2022-10-25T05:06:31.979Z,65.57
2022-10-25T05:08:36.334Z,65.32
2022-10-25T05:10:39.533Z,65.40
2022-10-25T05:12:41.574Z,65.09
2022-10-25T05:14:44.545Z,64.88
2022-10-25T05:16:46.677Z,65.51
2022-10-25T05:18:50.481Z,65.26
2022-10-25T05:20:57.048Z,65.47
2022-10-25T05:22:59.260Z,65.07
2022-10-25T05:25:04.144Z,65.18
2022-10-25T05:27:06.453Z,65.34
2022-10-25T05:29:11.971Z,65.90
2022-10-25T05:31:25.357Z,65.96
2022-10-25T05:33:27.640Z,65.60
2022-10-25T05:35:29.736Z,65.91
2022-10-25T05:37:34.033Z,66.17
2022-10-25T05:39:39.215Z,66.62
2022-10-25T05:41:41.393Z,66.37
2022-10-25T05:43:44.479Z,66.17
2022-10-25T05:45:46.488Z,66.28
2022-10-25T05:47:48.614Z,66.57
2022-10-25T05:49:50.672Z,66.47
2022-10-25T05:51:52.710Z,66.63
2022-10-25T05:53:57.031Z,66.48
2022-10-25T05:56:00.871Z,66.57
2022-10-25T05:58:04.070Z,67.07
2022-10-25T06:00:06.962Z,66.76
2022-10-25T06:02:10.069Z,66.86
2022-10-25T06:04:13.531Z,66.83
2022-10-25T06:06:15.976Z,67.26
2022-10-25T06:08:18.212Z,66.74
2022-10-25T06:10:45.424Z,67.52
2022-10-25T06:12:47.859Z,67.31
2022-10-25T06:14:49.982Z,66.90
2022-10-25T06:16:52.058Z,66.74
2022-10-25T06:18:55.088Z,66.76
2022-10-25T06:21:00.803Z,67.01
2022-10-25T06:23:02.985Z,66.88
2022-10-25T06:25:05.766Z,67.19
2022-10-25T06:27:07.847Z,66.75
2022-10-25T06:29:10.142Z,66.82
2022-10-25T06:31:15.556Z,66.46
2022-10-25T06:33:17.567Z,66.74
2022-10-25T06:35:19.568Z,66.50
2022-10-25T06:37:21.702Z,66.63
2022-10-25T06:39:23.755Z,66.92
2022-10-25T06:41:29.146Z,67.52
2022-10-25T06:43:32.893Z,67.25
2022-10-25T06:45:36.181Z,66.70
2022-10-25T06:47:41.034Z,66.88
2022-10-25T06:49:43.110Z,66.82
2022-10-25T06:51:45.624Z,66.67
2022-10-25T06:53:47.962Z,67.04
2022-10-25T06:55:49.973Z,66.91
2022-10-25T06:57:51.683Z,66.81
2022-10-25T06:59:55.970Z,66.60
2022-10-25T07:01:58.423Z,66.96
2022-10-25T07:04:02.476Z,67.12
2022-10-25T07:06:07.401Z,67.08
2022-10-25T07:08:09.784Z,66.98
2022-10-25T07:10:12.055Z,67.17
2022-10-25T07:12:13.900Z,66.79
2022-10-25T07:14:15.901Z,66.55
2022-10-25T07:16:19.462Z,66.82
2022-10-25T07:18:21.585Z,67.14
2022-10-25T07:20:23.658Z,67.39
2022-10-25T07:22:26.005Z,67.06
2022-10-25T07:24:28.136Z,66.92
2022-10-25T07:26:33.041Z,67.15
2022-10-25T07:28:35.128Z,67.31
2022-10-25T07:30:36.855Z,67.48
2022-10-25T07:32:41.665Z,66.88
2022-10-25T07:34:44.647Z,66.70
2022-10-25T07:36:46.551Z,67.11
2022-10-25T07:38:48.742Z,66.95
2022-10-25T07:40:59.803Z,67.28
2022-10-25T07:43:02.027Z,66.88
2022-10-25T07:45:04.230Z,66.62
2022-10-25T07:47:06.237Z,67.01
2022-10-25T07:49:08.203Z,67.23
2022-10-25T07:51:15.423Z,67.34
2022-10-25T07:53:17.189Z,67.25
2022-10-25T07:55:21.581Z,67.40
2022-10-25T07:57:23.578Z,67.11
2022-10-25T07:59:26.010Z,67.35
2022-10-25T08:01:29.199Z,67.34
2022-10-25T08:03:31.982Z,67.01
2022-10-25T08:05:33.711Z,66.66
2022-10-25T08:07:36.234Z,66.66
2022-10-25T08:09:38.767Z,66.98
2022-10-25T08:11:41.206Z,67.12
2022-10-25T08:13:43.272Z,67.40
2022-10-25T08:15:53.089Z,67.58
2022-10-25T08:18:02.629Z,68.10
2022-10-25T08:20:05.257Z,67.72
2022-10-25T08:22:07.070Z,67.42
2022-10-25T08:24:09.068Z,67.88
2022-10-25T08:26:11.174Z,67.95
2022-10-25T08:28:13.483Z,68.00
2022-10-25T08:30:15.496Z,67.43
2022-10-25T08:32:17.289Z,68.31
2022-10-25T08:34:19.295Z,67.75
2022-10-25T08:36:21.265Z,67.89
2022-10-25T08:38:23.456Z,67.52
2022-10-25T08:40:30.090Z,68.09
2022-10-25T08:42:34.821Z,67.47
2022-10-25T08:44:55.189Z,67.68
2022-10-25T08:47:23.152Z,67.98
2022-10-25T08:50:03.541Z,68.45
2022-10-25T08:52:17.376Z,67.78
2022-10-25T08:54:38.107Z,67.81
2022-10-25T08:56:56.480Z,67.87
2022-10-25T08:59:02.228Z,67.89
2022-10-25T09:01:14.045Z,68.01
2022-10-25T09:03:24.893Z,69.00
2022-10-25T09:05:42.350Z,68.27
2022-10-25T09:07:51.416Z,69.07
2022-10-25T09:10:19.358Z,68.58
2022-10-25T09:12:38.714Z,69.15
2022-10-25T09:14:59.157Z,68.41
2022-10-25T09:17:21.265Z,68.97
2022-10-25T09:19:34.143Z,68.26
2022-10-25T09:22:00.472Z,68.76
2022-10-25T09:24:09.884Z,68.39
2022-10-25T09:26:26.834Z,68.76
2022-10-25T09:28:44.479Z,68.35
2022-10-25T09:30:46.824Z,68.21
2022-10-25T09:33:01.505Z,68.56
2022-10-25T09:35:06.867Z,68.32
2022-10-25T09:37:25.462Z,68.71
2022-10-25T09:39:44.888Z,68.50
2022-10-25T09:41:55.163Z,68.60
2022-10-25T09:44:02.989Z,68.35
2022-10-25T09:46:20.885Z,68.75
2022-10-25T09:48:31.739Z,68.56
2022-10-25T09:50:57.799Z,68.67
2022-10-25T09:53:05.622Z,68.17
2022-10-25T09:55:35.257Z,68.72
2022-10-25T09:57:37.584Z,68.38
2022-10-25T09:59:39.692Z,68.31
2022-10-25T10:01:42.399Z,68.48
2022-10-25T10:03:47.063Z,68.19
2022-10-25T10:06:02.071Z,68.63
2022-10-25T10:08:04.361Z,68.06
2022-10-25T10:10:11.171Z,68.61
2022-10-25T10:12:31.116Z,68.87
2022-10-25T10:15:09.846Z,69.29
2022-10-25T10:17:16.433Z,68.81
2022-10-25T10:19:22.727Z,68.71
2022-10-25T10:21:25.072Z,68.49
2022-10-25T10:23:33.582Z,68.77
2022-10-25T10:25:35.779Z,68.69
2022-10-25T10:27:37.676Z,68.57
2022-10-25T10:29:57.091Z,68.69
2022-10-25T10:32:22.031Z,68.75
2022-10-25T10:34:46.002Z,69.07
2022-10-25T10:36:50.113Z,68.76
2022-10-25T10:38:52.636Z,68.83
2022-10-25T10:41:20.749Z,69.64
2022-10-25T10:43:31.178Z,68.68
2022-10-25T10:45:37.685Z,69.28
2022-10-25T10:47:48.990Z,69.03
2022-10-25T10:49:51.123Z,68.55
2022-10-25T10:51:53.132Z,68.68
2022-10-25T10:53:55.250Z,68.52
2022-10-25T10:56:00.175Z,69.08
2022-10-25T10:58:05.865Z,68.95
2022-10-25T11:00:25.320Z,69.04
2022-10-25T11:02:41.395Z,69.43
2022-10-25T11:04:51.607Z,69.37
2022-10-25T11:06:53.540Z,69.60
2022-10-25T11:09:18.139Z,69.80
2022-10-25T11:11:22.180Z,69.23
2022-10-25T11:13:25.946Z,69.27
2022-10-25T11:15:30.191Z,69.53
2022-10-25T11:17:37.988Z,69.82
2022-10-25T11:19:51.230Z,69.32
2022-10-25T11:22:02.283Z,69.51
2022-10-25T11:24:13.517Z,69.24
2022-10-25T11:26:33.461Z,69.30
2022-10-25T11:29:27.998Z,70.24
2022-10-25T11:31:56.000Z,70.13
2022-10-25T11:34:33.255Z,70.30
2022-10-25T11:37:09.774Z,70.22
2022-10-25T11:39:38.225Z,70.08
2022-10-25T11:41:54.633Z,70.09
2022-10-25T11:44:08.763Z,69.85
2022-10-25T11:46:27.163Z,70.07
2022-10-25T11:49:13.828Z,69.70
2022-10-25T11:51:18.816Z,69.70
2022-10-25T11:53:33.060Z,69.85
2022-10-25T11:55:45.349Z,69.42
2022-10-25T11:58:16.806Z,69.62
2022-10-25T12:00:52.089Z,69.96
2022-10-25T12:03:02.876Z,69.45
2022-10-25T12:05:13.974Z,69.91
2022-10-25T12:07:33.979Z,69.90
2022-10-25T12:09:53.551Z,69.61
2022-10-25T12:12:10.402Z,69.73
2022-10-25T12:14:28.479Z,69.19
2022-10-25T12:16:32.564Z,68.70
2022-10-25T12:18:45.089Z,69.07
2022-10-25T12:20:49.687Z,68.88
2022-10-25T12:22:56.114Z,69.25
2022-10-25T12:25:05.614Z,69.31
2022-10-25T12:27:11.726Z,69.04
2022-10-25T12:29:33.220Z,69.63
2022-10-25T12:31:46.072Z,69.71
2022-10-25T12:34:14.870Z,69.48
2022-10-25T12:36:45.352Z,69.75
2022-10-25T12:38:47.800Z,69.38
2022-10-25T12:40:54.608Z,68.93
2022-10-25T12:43:17.277Z,69.36
2022-10-25T12:45:37.854Z,68.98
2022-10-25T12:47:58.322Z,69.34
2022-10-25T12:50:06.190Z,69.33
2022-10-25T12:52:28.653Z,69.32
2022-10-25T12:54:49.723Z,69.73
2022-10-25T12:57:15.794Z,69.38
2022-10-25T12:59:36.220Z,69.73
2022-10-25T13:02:04.431Z,69.46
2022-10-25T13:04:23.175Z,69.45
2022-10-25T13:06:44.769Z,69.55
2022-10-25T13:08:47.351Z,69.03
2022-10-25T13:10:58.175Z,69.44
2022-10-25T13:13:05.645Z,68.79
2022-10-25T13:15:18.699Z,69.25
2022-10-25T13:17:20.642Z,68.95
2022-10-25T13:19:35.934Z,68.94
2022-10-25T13:21:53.654Z,69.20
2022-10-25T13:23:59.770Z,68.87
2022-10-25T13:26:08.484Z,69.00
2022-10-25T13:28:16.550Z,69.03
2022-10-25T13:32:25.971Z,68.90
2022-10-25T13:34:34.604Z,69.27
2022-10-25T13:40:34.105Z,68.81
2022-10-25T13:42:38.562Z,68.55
2022-10-25T13:44:58.587Z,69.10
2022-10-25T13:47:00.639Z,68.85
2022-10-25T13:49:23.319Z,68.40
2022-10-25T13:51:25.742Z,68.59
2022-10-25T13:53:38.027Z,68.75
2022-10-25T13:55:58.424Z,69.01
2022-10-25T13:58:01.487Z,68.78
2022-10-25T14:00:11.813Z,69.23
2022-10-25T14:02:20.001Z,68.76
2022-10-25T14:04:42.128Z,68.91
2022-10-25T14:06:43.982Z,68.75
2022-10-25T14:08:55.904Z,68.79
2022-10-25T14:11:07.867Z,69.27
2022-10-25T14:13:19.518Z,69.25
2022-10-25T14:15:48.819Z,69.14
2022-10-25T14:17:51.086Z,69.43
2022-10-25T14:20:02.946Z,69.30
2022-10-25T14:22:13.886Z,69.48
2022-10-25T14:24:17.423Z,69.58
2022-10-25T14:26:21.399Z,69.27
2022-10-25T14:28:31.668Z,69.60
2022-10-25T14:30:52.980Z,69.54
2022-10-25T14:33:01.235Z,69.43
2022-10-25T14:35:03.440Z,69.57
2022-10-25T14:37:05.701Z,69.61
2022-10-25T14:39:20.170Z,69.92
2022-10-25T14:41:26.893Z,70.01
2022-10-25T14:43:32.136Z,69.30
2022-10-25T14:45:34.316Z,69.28
2022-10-25T14:47:36.600Z,69.83
2022-10-25T14:49:39.021Z,69.74
2022-10-25T14:51:43.462Z,69.69
2022-10-25T14:53:56.110Z,69.95
2022-10-25T14:56:04.053Z,69.48
2022-10-25T14:58:12.024Z,69.85
2022-10-25T15:00:19.830Z,69.55
2022-10-25T15:02:33.152Z,69.66
2022-10-25T15:04:40.808Z,69.44
2022-10-25T15:06:43.355Z,69.29
2022-10-25T15:08:50.648Z,69.27
2022-10-25T15:11:09.567Z,69.35
2022-10-25T15:13:21.209Z,69.18
2022-10-25T15:15:44.247Z,69.59
2022-10-25T15:17:53.086Z,69.41
2022-10-25T15:20:03.274Z,69.95
2022-10-25T15:22:10.747Z,69.50
2022-10-25T15:24:21.022Z,69.85
2022-10-25T15:26:33.550Z,69.62
2022-10-25T15:28:54.823Z,69.77
2022-10-25T15:31:02.437Z,69.67
2022-10-25T15:33:10.287Z,69.40
2022-10-25T15:35:24.401Z,69.63
2022-10-25T15:37:28.184Z,69.30
2022-10-25T15:39:31.491Z,69.25
2022-10-25T15:41:35.482Z,69.21
2022-10-25T15:43:37.445Z,69.13
2022-10-25T15:45:40.468Z,69.24
2022-10-25T15:47:42.778Z,69.28
2022-10-25T15:49:44.824Z,69.41
2022-10-25T15:51:47.170Z,69.07
2022-10-25T15:53:49.565Z,69.05
2022-10-25T15:55:52.652Z,69.20
2022-10-25T15:57:55.413Z,69.06
2022-10-25T15:59:57.487Z,69.21
2022-10-25T16:01:59.964Z,69.26
2022-10-25T16:04:01.970Z,69.05
2022-10-25T16:06:03.883Z,68.83
2022-10-25T16:08:05.925Z,69.28
2022-10-25T16:10:08.428Z,69.04
2022-10-25T16:12:32.856Z,69.13
2022-10-25T16:14:38.116Z,69.08
2022-10-25T16:16:41.249Z,68.90
2022-10-25T16:18:43.331Z,69.01
2022-10-25T16:20:45.530Z,68.88
2022-10-25T16:22:48.153Z,68.81
2022-10-25T16:24:50.715Z,68.91
2022-10-25T16:26:52.960Z,68.77
2022-10-25T16:28:55.078Z,68.61
2022-10-25T16:30:56.983Z,68.47
2022-10-25T16:32:59.072Z,68.57
2022-10-25T16:35:01.133Z,68.45
2022-10-25T16:37:05.499Z,68.38
2022-10-25T16:39:12.739Z,68.28
2022-10-25T16:41:29.711Z,68.75
2022-10-25T16:43:31.746Z,68.28
2022-10-25T16:45:39.797Z,68.29
2022-10-25T16:47:41.817Z,68.46
2022-10-25T16:49:43.924Z,68.12
2022-10-25T16:51:45.962Z,68.18
2022-10-25T16:53:48.713Z,68.37
2022-10-25T16:55:50.866Z,68.50
2022-10-25T16:57:52.675Z,68.58
2022-10-25T16:59:57.063Z,68.51
2022-10-25T17:01:59.257Z,68.22
2022-10-25T17:04:02.301Z,68.46
2022-10-25T17:06:22.243Z,68.45
2022-10-25T17:08:28.206Z,68.44
2022-10-25T17:10:30.914Z,68.41
2022-10-25T17:12:32.943Z,68.50
2022-10-25T17:14:35.442Z,68.65
2022-10-25T17:16:41.778Z,68.65
2022-10-25T17:18:43.916Z,68.62
2022-10-25T17:20:46.031Z,68.45
2022-10-25T17:22:49.055Z,68.57
2022-10-25T17:24:51.270Z,68.22
2022-10-25T17:26:53.378Z,68.20
2022-10-25T17:28:55.531Z,68.46
2022-10-25T17:30:58.263Z,68.37
2022-10-25T17:33:00.771Z,68.33
2022-10-25T17:39:03.249Z,68.50
2022-10-25T17:41:05.555Z,68.72
2022-10-25T17:43:07.877Z,68.91
2022-10-25T17:45:10.539Z,68.80
2022-10-25T17:47:13.039Z,68.87
2022-10-25T17:49:15.482Z,68.74
2022-10-25T17:51:17.540Z,68.82
2022-10-25T17:53:19.573Z,68.50
2022-10-25T17:55:21.574Z,68.63
2022-10-25T17:57:23.661Z,68.38
2022-10-25T17:59:27.813Z,68.47
2022-10-25T18:01:32.118Z,68.42
2022-10-25T18:03:34.096Z,68.87
2022-10-25T18:05:39.581Z,68.34
2022-10-25T18:07:41.562Z,68.13
2022-10-25T18:09:43.745Z,67.61
2022-10-25T18:11:46.637Z,67.75
2022-10-25T18:13:59.291Z,67.97
2022-10-25T18:16:01.618Z,67.75
2022-10-25T18:18:03.831Z,67.89
2022-10-25T18:20:06.647Z,67.76
2022-10-25T18:22:08.578Z,67.54
2022-10-25T18:24:13.025Z,67.74
2022-10-25T18:26:18.571Z,67.51
2022-10-25T18:28:20.884Z,67.57
2022-10-25T18:30:23.039Z,67.62
2022-10-25T18:32:32.097Z,67.63
2022-10-25T18:34:35.862Z,67.45
2022-10-25T18:36:37.654Z,67.78
2022-10-25T18:38:39.713Z,67.28
2022-10-25T18:40:41.566Z,67.90
2022-10-25T18:42:58.894Z,67.20
2022-10-25T18:45:01.360Z,67.50
2022-10-25T18:47:03.240Z,67.31
2022-10-25T18:53:06.327Z,67.70
2022-10-25T18:55:08.497Z,67.67
2022-10-25T18:57:10.717Z,67.59
2022-10-25T18:59:12.601Z,67.27
2022-10-25T19:01:22.869Z,67.72
2022-10-25T19:03:25.072Z,68.06
2022-10-25T19:05:29.243Z,68.21
2022-10-25T19:07:31.278Z,67.85
2022-10-25T19:09:33.155Z,68.09
2022-10-25T19:11:35.366Z,67.95
2022-10-25T19:13:37.959Z,68.09
2022-10-25T19:15:40.000Z,67.60
2022-10-25T19:17:42.018Z,67.76
2022-10-25T19:19:43.962Z,67.69
2022-10-25T19:21:46.677Z,67.98
2022-10-25T19:23:48.785Z,68.49
2022-10-25T19:25:51.182Z,68.36
2022-10-25T19:27:53.261Z,68.17
2022-10-25T19:29:57.625Z,68.26
2022-10-25T19:31:59.589Z,68.04
2022-10-25T19:34:03.454Z,67.91
2022-10-25T19:36:09.625Z,68.36
2022-10-25T19:38:12.176Z,68.18
2022-10-25T19:40:14.560Z,68.13
2022-10-25T19:42:17.097Z,67.62
2022-10-25T19:44:19.091Z,68.43
2022-10-25T19:46:21.768Z,68.63
2022-10-25T19:48:24.618Z,68.56
2022-10-25T19:50:28.984Z,68.34
2022-10-25T19:52:31.483Z,68.53
2022-10-25T19:54:35.940Z,68.48
2022-10-25T19:56:39.330Z,68.27
2022-10-25T19:58:41.768Z,67.87
2022-10-25T20:00:43.850Z,68.10
2022-10-25T20:02:45.771Z,67.95
2022-10-25T20:04:53.357Z,67.99
2022-10-25T20:06:55.501Z,67.49
2022-10-25T20:08:59.000Z,67.61
2022-10-25T20:11:01.976Z,67.30
2022-10-25T20:13:04.878Z,67.27
2022-10-25T20:15:07.752Z,67.18
2022-10-25T20:17:09.942Z,67.12
2022-10-25T20:19:14.184Z,67.03
2022-10-25T20:21:19.607Z,66.97
2022-10-25T20:23:21.931Z,66.94
2022-10-25T20:25:25.295Z,67.11
2022-10-25T20:27:27.361Z,67.27
2022-10-25T20:29:29.382Z,67.15
2022-10-25T20:31:34.124Z,67.33
2022-10-25T20:33:36.090Z,67.30
2022-10-25T20:35:40.484Z,67.11
2022-10-25T20:37:42.480Z,67.28
2022-10-25T20:39:44.537Z,67.10
2022-10-25T20:41:46.695Z,67.26
2022-10-25T20:43:51.715Z,67.83
2022-10-25T20:45:53.910Z,67.64
2022-10-25T20:47:59.833Z,67.57
2022-10-25T20:50:02.318Z,67.26
2022-10-25T20:52:04.733Z,67.25
2022-10-25T20:54:09.956Z,67.26
2022-10-25T20:56:13.842Z,67.14
2022-10-25T20:58:17.428Z,66.87
2022-10-25T21:00:20.596Z,66.81
2022-10-25T21:02:22.989Z,66.69
2022-10-25T21:04:30.663Z,66.72
2022-10-25T21:06:44.248Z,66.46
2022-10-25T21:08:46.220Z,66.84
2022-10-25T21:10:56.166Z,66.42
2022-10-25T21:12:59.097Z,66.50
2022-10-25T21:15:01.061Z,66.66
2022-10-25T21:17:03.090Z,66.33
2022-10-25T21:19:05.090Z,66.34
2022-10-25T21:21:09.946Z,66.17
2022-10-25T21:23:12.424Z,66.03
2022-10-25T21:25:15.144Z,65.96
2022-10-25T21:27:20.168Z,65.99
2022-10-25T21:29:22.705Z,65.67
2022-10-25T21:31:24.792Z,65.69
2022-10-25T21:33:26.757Z,65.27
2022-10-25T21:35:28.646Z,65.07
2022-10-25T21:37:30.594Z,65.07
2022-10-25T21:39:33.239Z,65.34
2022-10-25T21:41:35.590Z,65.10
2022-10-25T21:43:43.082Z,64.96
2022-10-25T21:45:50.397Z,64.99
2022-10-25T21:47:52.988Z,64.77
2022-10-25T21:49:55.302Z,64.59
2022-10-25T21:51:57.627Z,64.54
2022-10-25T21:54:01.454Z,64.59
2022-10-25T21:56:18.060Z,64.06
2022-10-25T21:58:22.483Z,64.21
2022-10-25T22:00:24.452Z,64.04
2022-10-25T22:02:26.682Z,64.00
2022-10-25T22:04:28.684Z,63.84
2022-10-25T22:06:30.807Z,63.99
2022-10-25T22:08:32.988Z,63.91
2022-10-25T22:10:34.916Z,63.85
2022-10-25T22:12:36.915Z,64.14
2022-10-25T22:14:38.820Z,63.50
2022-10-25T22:16:41.060Z,63.50
2022-10-25T22:18:48.079Z,63.61
2022-10-25T22:21:01.604Z,63.01
2022-10-25T22:23:03.705Z,63.21
2022-10-25T22:25:08.905Z,63.31
2022-10-25T22:27:10.976Z,63.47
2022-10-25T22:29:15.111Z,63.07
2022-10-25T22:31:17.943Z,63.45
2022-10-25T22:33:19.894Z,63.12
2022-10-25T22:35:21.926Z,63.26
2022-10-25T22:37:23.942Z,63.31
2022-10-25T22:39:26.030Z,63.03
2022-10-25T22:41:29.739Z,63.14
2022-10-25T22:43:37.255Z,62.58
2022-10-25T22:45:42.065Z,63.02
2022-10-25T22:47:47.555Z,63.11
2022-10-25T22:49:49.859Z,62.83
2022-10-25T22:51:51.869Z,62.53
2022-10-25T22:53:54.153Z,62.43
2022-10-25T22:55:58.728Z,62.69
2022-10-25T22:58:00.760Z,62.56
2022-10-25T23:00:03.238Z,62.53
2022-10-25T23:02:05.391Z,62.43
2022-10-25T23:04:12.664Z,62.13
2022-10-25T23:06:17.200Z,62.04
2022-10-25T23:08:19.164Z,62.26
2022-10-25T23:10:21.135Z,62.57
2022-10-25T23:12:23.481Z,62.54
2022-10-25T23:14:25.659Z,62.68
2022-10-25T23:16:28.686Z,62.82
2022-10-25T23:18:30.877Z,62.40
2022-10-25T23:20:33.219Z,62.44
2022-10-25T23:22:35.353Z,62.39
2022-10-25T23:24:37.404Z,62.43
2022-10-25T23:26:39.826Z,62.70
2022-10-25T23:28:41.798Z,62.64
2022-10-25T23:30:44.387Z,62.43
2022-10-25T23:32:46.491Z,62.23
2022-10-25T23:34:48.908Z,62.66
2022-10-25T23:36:51.452Z,62.50
2022-10-25T23:38:54.946Z,62.41
2022-10-25T23:40:57.131Z,62.32
2022-10-25T23:42:59.749Z,62.33
2022-10-25T23:45:03.373Z,62.16
2022-10-25T23:47:05.534Z,62.52
2022-10-25T23:49:07.724Z,62.17
2022-10-25T23:51:12.430Z,62.37
2022-10-25T23:53:14.418Z,62.42
2022-10-25T23:55:16.462Z,61.86
2022-10-25T23:57:19.192Z,62.27
2022-10-25T23:59:21.379Z,62.32
